This is the latest recevied weather packets stored in our database for station/object DL8FX-6. If no packets are shown the sender has not sent any weather packets the latest 10 day(s).
| Time | Temp. | Humidity | Pressure | Rain* | Wind** | Luminosity | Snow |
|---|---|---|---|---|---|---|---|
| 1777965034 | 15° C | 97% | 1007.5 hPa | 0 mm | - | - | - |
| 1777959056 | 13.33° C | 97% | 1007.9 hPa | 0.51 mm | - | - | - |
| 1777955431 | 12.78° C | 92% | 1008.1 hPa | 3.56 mm | - | - | - |
| 1777954243 | 13.33° C | 90% | 1008.6 hPa | 0.51 mm | - | - | - |
| 1777947034 | 13.89° C | 81% | 1008.9 hPa | 0 mm | - | - | - |
| 1777937432 | 13.33° C | 83% | 1009.4 hPa | 0 mm | - | - | - |
| 1777935620 | 12.78° C | 83% | 1009.7 hPa | 0 mm | - | - | - |
| 1777924267 | 16.11° C | 73% | 1010 hPa | 0 mm | - | - | - |
| 1777923079 | 16.67° C | 71% | 1009.8 hPa | 0 mm | - | - | - |
| 1777921850 | 17.78° C | 68% | 1009.9 hPa | 0 mm | - | - | - |
| 1777915267 | 22.78° C | 50% | 1009.4 hPa | 0 mm | - | - | - |
| 1777912852 | 21.67° C | 57% | 1009.4 hPa | 0 mm | - | - | - |
| 1777908644 | 22.22° C | 51% | 1009.6 hPa | 0 mm | - | - | - |
| 1777904456 | 22.78° C | 46% | 1009.9 hPa | 0 mm | - | - | - |
| 1777903249 | 23.89° C | 44% | 1009.9 hPa | 0 mm | - | - | - |
| 1777900832 | 22.78° C | 50% | 1010.1 hPa | 0 mm | - | - | - |
| 1777900228 | 23.33° C | 51% | 1010.2 hPa | 0 mm | - | - | - |
| 1777899624 | 21.67° C | 59% | 1010.2 hPa | 0 mm | - | - | - |
| 1777898476 | 22.78° C | 52% | 1010.3 hPa | 0 mm | - | - | - |
| 1777895455 | 22.78° C | 51% | 1010.2 hPa | 0 mm | - | - | - |
| 1777884036 | 22.22° C | 56% | 1010.6 hPa | 0 mm | - | - | - |
| 1777881016 | 21.11° C | 60% | 1010.5 hPa | 0 mm | - | - | - |
| 1777878056 | 21.67° C | 56% | 1010 hPa | 0 mm | - | - | - |
| 1777875641 | 21.11° C | 53% | 1010 hPa | 0 mm | - | - | - |
| 1777873829 | 21.11° C | 52% | 1009.7 hPa | 0 mm | - | - | - |
* Rain latest hour (hover to see other rain measurements)
** Current wind speed in m/s (hover to see current wind gust speed)